Time;durP1;ratioP1;P1;durP2;ratioP2;P2;SDS_P1;SDS_P2;PMS_P1;PMS_P2;Temp;Humidity;BMP_temperature;BMP_pressure;BME280_temperature;BME280_humidity;BME280_pressure;Samples;Min_cycle;Max_cycle;Signal;HPM_P1;HPM_P2
2022/11/19 00:01:18;;;;;;;0.77;0.70;;;10.20;99.90;;;;;;5032995;28;20204;-65
2022/11/19 00:03:45;;;;;;;0.57;0.57;;;10.10;99.90;;;;;;5033779;28;20228;-64
2022/11/19 00:06:14;;;;;;;0.60;0.60;;;10.10;99.90;;;;;;5037861;28;20232;-64
2022/11/19 00:08:43;;;;;;;0.47;0.47;;;10.10;99.90;;;;;;5034227;28;20205;-66
2022/11/19 00:11:12;;;;;;;0.50;0.50;;;10.10;99.90;;;;;;5030969;28;20208;-65
2022/11/19 00:13:40;;;;;;;0.50;0.50;;;10.10;99.90;;;;;;5031185;28;20300;-65
2022/11/19 00:16:09;;;;;;;0.50;0.50;;;10.10;99.90;;;;;;5030620;28;20221;-65
2022/11/19 00:18:36;;;;;;;0.60;0.60;;;10.10;99.90;;;;;;5029939;28;20659;-65
2022/11/19 00:21:04;;;;;;;0.50;0.50;;;10.10;99.90;;;;;;5029436;28;20291;-66
2022/11/19 00:23:31;;;;;;;0.53;0.53;;;10.10;99.90;;;;;;5020441;28;20207;-64
2022/11/19 00:26:05;;;;;;;0.50;0.50;;;10.10;99.90;;;;;;5028315;28;20602;-65
2022/11/19 00:28:32;;;;;;;0.63;0.50;;;10.10;99.90;;;;;;5025482;28;20195;-65
2022/11/19 00:31:04;;;;;;;0.50;0.50;;;10.10;99.90;;;;;;5026504;28;20197;-64
2022/11/19 00:33:31;;;;;;;0.40;0.40;;;10.20;99.90;;;;;;5026377;28;20217;-65
2022/11/19 00:35:59;;;;;;;0.53;0.53;;;10.10;99.90;;;;;;5024323;28;20616;-66
2022/11/19 00:38:26;;;;;;;0.50;0.50;;;10.20;99.90;;;;;;5017062;28;20208;-66
2022/11/19 00:40:53;;;;;;;0.40;0.40;;;10.20;99.90;;;;;;5018153;28;20292;-66
2022/11/19 00:46:06;;;;;;;0.60;0.60;;;10.20;99.90;;;;;;5016430;28;20303;-65
2022/11/19 00:48:33;;;;;;;0.40;0.40;;;10.20;99.90;;;;;;5016104;28;20560;-65
2022/11/19 00:51:00;;;;;;;0.43;0.43;;;10.20;99.90;;;;;;5026873;28;20204;-65
2022/11/19 00:53:27;;;;;;;0.80;0.80;;;10.10;99.90;;;;;;5027636;28;20208;-64
2022/11/19 00:55:54;;;;;;;0.47;0.47;;;10.10;99.90;;;;;;5019328;28;20730;-65
2022/11/19 00:58:22;;;;;;;0.70;0.70;;;10.10;99.90;;;;;;5022437;28;20674;-65
2022/11/19 01:00:50;;;;;;;0.53;0.53;;;10.00;99.90;;;;;;5024288;28;20197;-64
2022/11/19 01:03:17;;;;;;;0.50;0.50;;;10.10;99.90;;;;;;5018680;28;20599;-66
2022/11/19 01:05:44;;;;;;;0.77;0.50;;;10.10;99.90;;;;;;5019846;28;20232;-65
2022/11/19 01:08:11;;;;;;;0.50;0.50;;;10.10;99.90;;;;;;5018773;28;20292;-64
2022/11/19 01:10:37;;;;;;;0.63;0.63;;;10.10;99.90;;;;;;5026066;28;20205;-65
2022/11/19 01:15:51;;;;;;;0.60;0.60;;;10.10;99.90;;;;;;5027254;28;20239;-66
2022/11/19 01:18:18;;;;;;;0.50;0.50;;;10.10;99.90;;;;;;5038063;28;20729;-66
2022/11/19 01:20:45;;;;;;;0.60;0.60;;;10.10;99.90;;;;;;5044742;28;20260;-65
2022/11/19 01:23:12;;;;;;;0.57;0.57;;;10.10;99.90;;;;;;5048313;28;20506;-66
2022/11/19 01:25:39;;;;;;;0.60;0.60;;;10.10;99.90;;;;;;5036398;28;20248;-65
2022/11/19 01:28:07;;;;;;;0.40;0.40;;;10.10;99.90;;;;;;5036713;28;20808;-65
2022/11/19 01:30:33;;;;;;;0.40;0.40;;;10.10;99.90;;;;;;5023377;28;20211;-65
2022/11/19 01:33:02;;;;;;;0.50;0.50;;;10.10;99.90;;;;;;5027252;28;20239;-65
2022/11/19 01:35:28;;;;;;;0.50;0.50;;;10.10;99.90;;;;;;5038772;28;20220;-65
2022/11/19 01:37:55;;;;;;;0.60;0.60;;;10.10;99.90;;;;;;5029574;28;20228;-65
2022/11/19 01:40:22;;;;;;;0.50;0.50;;;10.10;99.90;;;;;;5039398;28;20209;-64
2022/11/19 01:42:49;;;;;;;0.50;0.50;;;10.10;99.90;;;;;;5028146;28;20198;-64
2022/11/19 01:45:25;;;;;;;0.60;0.60;;;10.10;99.90;;;;;;5037273;28;20668;-66
2022/11/19 01:47:53;;;;;;;0.60;0.60;;;10.10;99.90;;;;;;5025489;28;20197;-65
2022/11/19 01:50:22;;;;;;;0.63;0.63;;;10.10;99.90;;;;;;5027609;28;20203;-65
2022/11/19 01:52:49;;;;;;;0.60;0.60;;;10.00;99.90;;;;;;5030826;28;20204;-66
2022/11/19 01:55:17;;;;;;;0.60;0.60;;;10.00;99.90;;;;;;5034277;28;20216;-66
2022/11/19 01:57:44;;;;;;;0.60;0.60;;;10.00;99.90;;;;;;5034934;28;20201;-64
2022/11/19 02:00:12;;;;;;;0.70;0.70;;;10.10;99.90;;;;;;5034933;28;20258;-66
2022/11/19 02:02:39;;;;;;;0.70;0.70;;;10.00;99.90;;;;;;5034835;28;20211;-64
2022/11/19 02:05:06;;;;;;;0.47;0.47;;;10.10;99.90;;;;;;5034006;28;20236;-64
2022/11/19 02:07:35;;;;;;;0.60;0.60;;;10.00;99.90;;;;;;5034733;28;20211;-66
2022/11/19 02:10:05;;;;;;;0.63;0.63;;;10.00;99.90;;;;;;5035635;28;20723;-65
2022/11/19 02:12:42;;;;;;;0.53;0.53;;;10.00;99.90;;;;;;5041615;28;20228;-63
2022/11/19 02:15:21;;;;;;;0.57;0.57;;;10.00;99.90;;;;;;5033937;28;20220;-66
2022/11/19 02:18:07;;;;;;;0.70;0.70;;;10.00;99.90;;;;;;5026521;28;20274;-66
2022/11/19 02:20:49;;;;;;;0.90;0.70;;;10.00;99.90;;;;;;5032526;28;20560;-65
2022/11/19 02:23:55;;;;;;;0.40;0.40;;;10.00;99.90;;;;;;5034011;28;20647;-65
2022/11/19 02:26:57;;;;;;;0.53;0.53;;;9.90;99.90;;;;;;5031540;28;20204;-65
2022/11/19 02:29:50;;;;;;;0.60;0.60;;;9.90;99.90;;;;;;5030643;28;20572;-64
2022/11/19 02:32:20;;;;;;;0.63;0.63;;;9.90;99.90;;;;;;5033984;28;20199;-66
2022/11/19 02:34:52;;;;;;;0.53;0.53;;;10.00;99.90;;;;;;5036109;28;20267;-63
2022/11/19 02:37:28;;;;;;;0.60;0.60;;;10.00;99.90;;;;;;5036971;28;20207;-64
2022/11/19 02:40:02;;;;;;;0.40;0.40;;;10.00;99.90;;;;;;5027605;28;20291;-64
2022/11/19 02:42:34;;;;;;;0.40;0.40;;;10.00;99.90;;;;;;5034077;28;20193;-63
2022/11/19 02:45:08;;;;;;;0.50;0.50;;;10.00;99.90;;;;;;5032561;28;20234;-64
2022/11/19 02:47:38;;;;;;;0.40;0.40;;;10.10;99.90;;;;;;5033693;28;20192;-64
2022/11/19 02:50:10;;;;;;;0.57;0.57;;;10.10;99.90;;;;;;5033881;28;20204;-64
2022/11/19 02:52:38;;;;;;;0.40;0.40;;;10.10;99.90;;;;;;5033604;28;20213;-64
2022/11/19 02:55:06;;;;;;;0.60;0.60;;;10.20;99.90;;;;;;5032802;28;20236;-63
2022/11/19 02:57:34;;;;;;;0.80;0.70;;;10.20;99.90;;;;;;5033430;28;20292;-64
2022/11/19 03:05:40;;;;;;;0.67;0.67;;;10.30;99.90;;;;;;5022919;28;20215;-65
2022/11/19 03:08:07;;;;;;;0.83;0.60;;;10.30;99.90;;;;;;5034222;28;20199;-63
2022/11/19 03:10:43;;;;;;;0.50;0.50;;;10.40;99.90;;;;;;5033348;28;20229;-64
2022/11/19 03:18:59;;;;;;;0.80;0.80;;;10.20;99.90;;;;;;5031757;28;20254;-66
2022/11/19 03:21:30;;;;;;;0.80;0.80;;;10.00;99.90;;;;;;5034301;28;20671;-63
2022/11/19 03:24:01;;;;;;;0.70;0.70;;;9.90;99.90;;;;;;5034263;28;20283;-65
2022/11/19 03:26:30;;;;;;;0.90;0.90;;;9.90;99.90;;;;;;5032519;28;20287;-65
2022/11/19 03:29:00;;;;;;;0.50;0.50;;;10.00;99.90;;;;;;5033515;28;20288;-63
2022/11/19 03:31:31;;;;;;;0.60;0.60;;;10.00;99.90;;;;;;5032982;28;20284;-63
2022/11/19 03:34:01;;;;;;;0.57;0.57;;;10.10;99.90;;;;;;5032935;28;20229;-63
2022/11/19 03:36:35;;;;;;;0.60;0.60;;;10.10;99.90;;;;;;5032953;28;20201;-63
2022/11/19 03:39:05;;;;;;;0.63;0.63;;;10.20;99.90;;;;;;5033458;28;20208;-64
2022/11/19 03:41:35;;;;;;;0.63;0.63;;;10.20;99.90;;;;;;5033281;28;20240;-63
2022/11/19 03:44:07;;;;;;;0.50;0.50;;;10.20;99.90;;;;;;5032278;28;20288;-65
2022/11/19 03:46:38;;;;;;;0.50;0.50;;;10.30;99.90;;;;;;5030002;28;20192;-65
2022/11/19 03:49:06;;;;;;;0.50;0.50;;;10.30;99.90;;;;;;5032268;28;20203;-64
2022/11/19 03:51:40;;;;;;;0.67;0.67;;;10.20;99.90;;;;;;5032470;28;20201;-64
2022/11/19 03:54:07;;;;;;;0.60;0.60;;;10.20;99.90;;;;;;5032731;28;20690;-63
2022/11/19 03:56:37;;;;;;;0.60;0.60;;;10.20;99.90;;;;;;5033882;28;20574;-65
2022/11/19 03:59:05;;;;;;;0.70;0.70;;;10.20;99.90;;;;;;5034515;28;20288;-64
2022/11/19 04:01:34;;;;;;;0.67;0.67;;;10.30;99.90;;;;;;5035372;28;20211;-64
2022/11/19 04:06:46;;;;;;;0.70;0.70;;;10.40;99.90;;;;;;5032530;28;20212;-65
2022/11/19 04:09:13;;;;;;;0.60;0.60;;;10.30;99.90;;;;;;5032835;28;20203;-64
2022/11/19 04:11:40;;;;;;;1.23;0.60;;;10.40;99.90;;;;;;5032858;28;20219;-65
2022/11/19 04:14:07;;;;;;;0.67;0.67;;;10.20;99.90;;;;;;5039899;28;20235;-64
2022/11/19 04:16:34;;;;;;;0.70;0.70;;;10.00;99.90;;;;;;5044507;28;20268;-63
2022/11/19 04:19:02;;;;;;;0.70;0.70;;;9.90;99.90;;;;;;5043245;28;20265;-64
2022/11/19 04:21:29;;;;;;;0.70;0.70;;;9.80;99.90;;;;;;5046946;28;20264;-65
2022/11/19 04:23:56;;;;;;;0.60;0.60;;;9.90;99.90;;;;;;5050801;28;20197;-65
2022/11/19 04:26:23;;;;;;;0.47;0.47;;;9.90;99.90;;;;;;5047556;28;20204;-64
2022/11/19 04:28:49;;;;;;;0.50;0.50;;;10.00;99.90;;;;;;5045480;28;20215;-64
2022/11/19 04:31:16;;;;;;;0.67;0.67;;;10.10;99.90;;;;;;5045091;28;20208;-64
2022/11/19 04:33:43;;;;;;;0.50;0.50;;;10.10;99.90;;;;;;5051087;28;20272;-64
2022/11/19 04:36:11;;;;;;;0.70;0.70;;;10.10;99.90;;;;;;5051584;28;20236;-63
2022/11/19 04:38:38;;;;;;;0.53;0.53;;;9.90;99.90;;;;;;5049716;28;20235;-63
2022/11/19 04:41:05;;;;;;;0.67;0.67;;;9.80;99.90;;;;;;5035628;28;20284;-65
2022/11/19 04:43:32;;;;;;;0.60;0.60;;;9.80;99.90;;;;;;5032084;28;20831;-65
2022/11/19 04:45:58;;;;;;;0.60;0.60;;;9.80;99.90;;;;;;5031609;28;20226;-65
2022/11/19 04:48:25;;;;;;;0.67;0.67;;;9.90;99.90;;;;;;5032250;28;20201;-65
2022/11/19 04:50:52;;;;;;;0.67;0.67;;;9.90;99.90;;;;;;5036594;28;20200;-63
2022/11/19 04:53:20;;;;;;;0.60;0.60;;;10.00;99.90;;;;;;5034258;28;20503;-65
2022/11/19 04:55:47;;;;;;;0.77;0.77;;;10.00;99.90;;;;;;5035278;28;20237;-64
2022/11/19 04:58:14;;;;;;;0.67;0.67;;;10.10;99.90;;;;;;5036251;28;20270;-64
2022/11/19 05:00:41;;;;;;;0.73;0.73;;;10.10;99.90;;;;;;5031614;28;20212;-64
2022/11/19 05:03:08;;;;;;;0.60;0.60;;;10.10;99.90;;;;;;5026296;28;20200;-64
2022/11/19 05:05:35;;;;;;;0.70;0.70;;;10.10;99.90;;;;;;5031002;28;20224;-64
2022/11/19 05:08:01;;;;;;;0.67;0.67;;;10.20;99.90;;;;;;5032772;28;20655;-63
2022/11/19 05:10:30;;;;;;;0.73;0.70;;;10.10;99.90;;;;;;5035762;28;20200;-63
2022/11/19 05:12:56;;;;;;;0.70;0.70;;;10.10;99.90;;;;;;5035284;28;20219;-64
2022/11/19 05:15:23;;;;;;;0.60;0.60;;;10.20;99.90;;;;;;5034332;28;20319;-63
2022/11/19 05:17:50;;;;;;;0.80;0.80;;;10.10;99.90;;;;;;5035597;28;20236;-64
2022/11/19 05:20:17;;;;;;;0.70;0.70;;;10.10;99.90;;;;;;5036169;28;20201;-64
2022/11/19 05:22:44;;;;;;;0.73;0.73;;;10.10;99.90;;;;;;5036328;28;20541;-65
2022/11/19 05:25:11;;;;;;;0.60;0.60;;;10.10;99.90;;;;;;5034541;28;20706;-64
2022/11/19 05:27:39;;;;;;;0.90;0.90;;;10.10;99.90;;;;;;5035169;28;20212;-63
2022/11/19 05:30:07;;;;;;;0.70;0.70;;;10.10;99.90;;;;;;5035259;28;20207;-63
2022/11/19 05:32:35;;;;;;;0.70;0.70;;;10.10;99.90;;;;;;5034900;28;20291;-64
2022/11/19 05:35:02;;;;;;;0.60;0.60;;;10.20;99.90;;;;;;5034338;28;20650;-64
2022/11/19 05:37:29;;;;;;;0.80;0.80;;;10.20;99.90;;;;;;5034926;28;20197;-64
2022/11/19 05:39:56;;;;;;;1.17;0.70;;;10.20;99.90;;;;;;5035145;28;20200;-63
2022/11/19 05:42:23;;;;;;;0.80;0.80;;;10.20;99.90;;;;;;5035209;28;20205;-64
2022/11/19 05:44:51;;;;;;;0.73;0.73;;;10.10;99.90;;;;;;5026038;28;20663;-64
2022/11/19 05:47:18;;;;;;;0.60;0.60;;;10.10;99.90;;;;;;5035004;28;20209;-63
2022/11/19 05:49:45;;;;;;;0.80;0.80;;;10.10;99.90;;;;;;5034835;28;20201;-64
2022/11/19 05:52:11;;;;;;;0.80;0.80;;;10.10;99.90;;;;;;5035275;28;20207;-64
2022/11/19 05:54:38;;;;;;;1.10;1.10;;;10.10;99.90;;;;;;5032504;28;20228;-63
2022/11/19 05:57:05;;;;;;;0.90;0.90;;;10.10;99.90;;;;;;5034854;28;20201;-65
2022/11/19 05:59:32;;;;;;;0.80;0.80;;;10.10;99.90;;;;;;5034505;28;20212;-64
2022/11/19 06:02:00;;;;;;;1.10;1.10;;;10.00;99.90;;;;;;5034995;28;20683;-64
2022/11/19 06:04:27;;;;;;;0.80;0.80;;;10.00;99.90;;;;;;5034200;28;20213;-64
2022/11/19 06:06:54;;;;;;;0.90;0.90;;;10.00;99.90;;;;;;5034925;28;20610;-64
2022/11/19 06:09:21;;;;;;;0.87;0.87;;;10.10;99.90;;;;;;5034890;28;20201;-64
2022/11/19 06:11:48;;;;;;;0.90;0.90;;;10.20;99.90;;;;;;5035013;28;20246;-63
2022/11/19 06:14:15;;;;;;;0.90;0.90;;;10.20;99.90;;;;;;5028355;28;20583;-65
2022/11/19 06:16:42;;;;;;;1.10;1.10;;;10.10;99.90;;;;;;5035718;28;20284;-64
2022/11/19 06:19:11;;;;;;;1.67;1.60;;;10.10;99.90;;;;;;5035388;28;20581;-64
2022/11/19 06:21:38;;;;;;;1.87;1.77;;;10.00;99.90;;;;;;5046273;28;20264;-65
2022/11/19 06:24:05;;;;;;;1.40;1.40;;;9.90;99.90;;;;;;5029394;28;20224;-65
2022/11/19 06:26:32;;;;;;;1.77;1.50;;;9.80;99.90;;;;;;5022320;28;20315;-64
2022/11/19 06:28:59;;;;;;;1.00;1.00;;;9.80;99.90;;;;;;5024303;28;20305;-64
2022/11/19 06:31:26;;;;;;;1.50;1.40;;;9.80;99.90;;;;;;5024066;28;20201;-64
2022/11/19 06:33:53;;;;;;;1.60;1.50;;;9.90;99.90;;;;;;5028091;28;20731;-64
2022/11/19 06:36:22;;;;;;;1.70;1.60;;;10.00;99.90;;;;;;5022203;28;20279;-64
2022/11/19 06:38:49;;;;;;;1.30;1.30;;;10.00;99.90;;;;;;5024521;28;20216;-63
2022/11/19 06:41:16;;;;;;;1.20;1.20;;;10.00;99.90;;;;;;5022710;28;20292;-63
2022/11/19 06:43:43;;;;;;;1.50;1.40;;;10.00;99.90;;;;;;5025591;28;20211;-63
2022/11/19 06:46:10;;;;;;;1.30;1.30;;;10.00;99.90;;;;;;5021765;28;20213;-64
2022/11/19 06:48:36;;;;;;;1.23;1.23;;;10.10;99.90;;;;;;5025482;28;20619;-64
2022/11/19 06:51:04;;;;;;;1.60;1.50;;;10.10;99.90;;;;;;5027036;28;20571;-64
2022/11/19 06:53:32;;;;;;;1.60;1.50;;;10.10;99.90;;;;;;5020881;28;20288;-65
2022/11/19 06:56:00;;;;;;;1.73;1.63;;;10.00;99.90;;;;;;5025074;28;20248;-64
2022/11/19 06:58:28;;;;;;;2.07;1.97;;;10.00;99.90;;;;;;5027298;28;20233;-63
2022/11/19 07:00:55;;;;;;;2.10;2.00;;;9.90;99.90;;;;;;5025334;28;20296;-62
2022/11/19 07:03:23;;;;;;;1.60;1.50;;;9.80;99.90;;;;;;5018993;28;20202;-63
2022/11/19 07:05:50;;;;;;;1.63;1.53;;;9.70;99.90;;;;;;5019869;28;20244;-64
2022/11/19 07:08:17;;;;;;;1.80;1.70;;;9.60;99.90;;;;;;5025056;28;20200;-64
2022/11/19 07:10:46;;;;;;;1.40;1.30;;;9.50;99.90;;;;;;5020698;28;20217;-64
2022/11/19 07:13:12;;;;;;;1.20;1.20;;;9.50;99.90;;;;;;5029016;28;20211;-64
2022/11/19 07:15:39;;;;;;;1.40;1.17;;;9.40;99.90;;;;;;5020168;28;20710;-64
2022/11/19 07:18:06;;;;;;;1.87;1.50;;;9.40;99.90;;;;;;5034316;28;20211;-63
2022/11/19 07:20:33;;;;;;;1.07;1.07;;;9.40;99.90;;;;;;5033051;28;20299;-63
2022/11/19 07:23:00;;;;;;;0.90;0.90;;;9.40;99.90;;;;;;5033627;28;20296;-63
2022/11/19 07:25:27;;;;;;;1.37;1.27;;;9.30;99.90;;;;;;5031671;28;20722;-64
2022/11/19 07:27:55;;;;;;;1.20;1.20;;;9.40;99.90;;;;;;5032320;28;20749;-62
2022/11/19 07:30:21;;;;;;;1.80;1.30;;;9.30;99.90;;;;;;5029919;28;20212;-63
2022/11/19 07:32:48;;;;;;;1.10;1.10;;;9.20;99.90;;;;;;5029681;28;20201;-64
2022/11/19 07:35:15;;;;;;;1.20;1.20;;;9.20;99.90;;;;;;5033056;28;20251;-62
2022/11/19 07:37:42;;;;;;;1.30;1.20;;;9.20;99.90;;;;;;5032735;28;20204;-64
2022/11/19 07:40:10;;;;;;;1.17;1.17;;;9.20;99.90;;;;;;5032059;28;20292;-63
2022/11/19 07:42:48;;;;;;;1.20;1.20;;;9.20;99.90;;;;;;5029822;28;20212;-64
2022/11/19 07:45:17;;;;;;;1.27;1.20;;;9.20;99.90;;;;;;5029512;28;20250;-64
2022/11/19 07:47:44;;;;;;;0.90;0.90;;;9.30;99.90;;;;;;5021472;28;20215;-65
2022/11/19 07:50:11;;;;;;;1.13;1.13;;;9.30;99.90;;;;;;5024735;28;20268;-63
2022/11/19 07:52:38;;;;;;;1.00;1.00;;;9.30;99.90;;;;;;5036459;28;20235;-64
2022/11/19 07:55:06;;;;;;;1.00;1.00;;;9.40;99.90;;;;;;5032298;28;20754;-63
2022/11/19 07:57:32;;;;;;;1.30;1.20;;;9.50;99.90;;;;;;5029434;28;20218;-64
2022/11/19 07:59:59;;;;;;;1.00;1.00;;;9.50;99.90;;;;;;5032413;28;20232;-65
2022/11/19 08:02:28;;;;;;;1.00;1.00;;;9.60;99.90;;;;;;5038730;28;20204;-63
2022/11/19 08:04:55;;;;;;;0.70;0.70;;;9.70;99.90;;;;;;5037661;28;20311;-64
2022/11/19 08:07:22;;;;;;;1.50;1.40;;;9.80;99.90;;;;;;5039710;28;20283;-66
2022/11/19 08:09:49;;;;;;;1.63;1.53;;;9.90;99.90;;;;;;5034672;28;20237;-64
2022/11/19 08:12:16;;;;;;;1.67;1.57;;;10.00;99.90;;;;;;5038540;28;20284;-63
2022/11/19 08:14:43;;;;;;;1.50;1.40;;;10.10;99.90;;;;;;5029214;28;20232;-63
2022/11/19 08:19:55;;;;;;;1.40;1.30;;;10.10;99.90;;;;;;5032417;28;20275;-63
2022/11/19 08:22:22;;;;;;;1.20;1.20;;;10.20;99.90;;;;;;5026852;28;20289;-64
2022/11/19 08:24:49;;;;;;;1.10;1.10;;;10.30;99.90;;;;;;5022475;28;20228;-64
2022/11/19 08:27:17;;;;;;;1.80;1.70;;;10.40;99.90;;;;;;5028747;28;20587;-65
2022/11/19 08:29:44;;;;;;;1.73;1.63;;;10.40;99.90;;;;;;5031407;28;20286;-64
2022/11/19 08:32:11;;;;;;;1.20;1.20;;;10.40;99.90;;;;;;5029974;28;20232;-64
2022/11/19 08:34:38;;;;;;;1.27;1.20;;;10.50;99.90;;;;;;5032822;28;20221;-65
2022/11/19 08:37:06;;;;;;;0.97;0.97;;;10.50;99.90;;;;;;5029299;28;20232;-64
2022/11/19 08:39:33;;;;;;;0.70;0.70;;;10.60;99.90;;;;;;5033362;28;20209;-65
2022/11/19 08:44:44;;;;;;;0.90;0.90;;;10.70;99.90;;;;;;5029859;28;20227;-65
2022/11/19 08:47:11;;;;;;;0.90;0.90;;;10.50;99.90;;;;;;5027160;28;20211;-65
2022/11/19 08:49:38;;;;;;;0.73;0.73;;;10.50;99.90;;;;;;5032895;28;20227;-63
2022/11/19 08:52:06;;;;;;;0.90;0.90;;;10.50;99.90;;;;;;5032011;28;20304;-65
2022/11/19 08:54:33;;;;;;;0.60;0.60;;;10.40;99.90;;;;;;5039793;22;20238;-63
2022/11/19 08:57:00;;;;;;;0.77;0.77;;;10.30;99.90;;;;;;5029016;28;20217;-63
2022/11/19 08:59:26;;;;;;;0.80;0.80;;;10.30;99.90;;;;;;5031057;28;20211;-64
2022/11/19 09:01:53;;;;;;;0.87;0.87;;;10.30;99.90;;;;;;5029717;28;20583;-65
2022/11/19 09:04:20;;;;;;;0.87;0.87;;;10.40;99.90;;;;;;5031065;28;20251;-65
2022/11/19 09:06:47;;;;;;;1.00;1.00;;;10.40;99.90;;;;;;5011419;28;20206;-64
2022/11/19 09:09:15;;;;;;;0.90;0.90;;;10.40;99.90;;;;;;5014317;28;20659;-65
2022/11/19 09:11:42;;;;;;;0.80;0.80;;;10.50;99.90;;;;;;5013326;28;20197;-64
2022/11/19 09:14:09;;;;;;;1.00;1.00;;;10.50;99.90;;;;;;5013574;28;20244;-65
2022/11/19 09:16:36;;;;;;;1.13;1.10;;;10.50;99.90;;;;;;5012448;28;20221;-65
2022/11/19 09:19:03;;;;;;;1.10;1.10;;;10.60;99.90;;;;;;5009682;28;20210;-64
2022/11/19 09:21:30;;;;;;;0.90;0.90;;;10.70;99.90;;;;;;5008735;28;20259;-62
2022/11/19 09:23:56;;;;;;;1.00;1.00;;;10.80;99.90;;;;;;5021128;28;20228;-64
2022/11/19 09:26:24;;;;;;;0.60;0.60;;;10.90;99.90;;;;;;5018627;28;20201;-63
2022/11/19 09:28:51;;;;;;;0.90;0.90;;;11.00;99.90;;;;;;5010514;28;20201;-65
2022/11/19 09:31:19;;;;;;;0.90;0.90;;;11.00;99.90;;;;;;5011849;28;20570;-63
2022/11/19 09:33:48;;;;;;;0.80;0.80;;;11.20;99.90;;;;;;5011134;28;20205;-63
2022/11/19 09:36:17;;;;;;;1.07;1.07;;;11.20;99.90;;;;;;5006173;28;20218;-63
2022/11/19 09:38:44;;;;;;;0.93;0.93;;;11.20;99.90;;;;;;5018423;28;20587;-64
2022/11/19 09:41:43;;;;;;;0.70;0.70;;;11.30;99.90;;;;;;5018406;28;20260;-63
2022/11/19 09:44:32;;;;;;;0.90;0.90;;;11.30;99.90;;;;;;5000893;28;20302;-64
2022/11/19 09:47:06;;;;;;;0.90;0.90;;;11.30;99.90;;;;;;5003404;28;20652;-65
2022/11/19 09:49:39;;;;;;;1.10;1.10;;;11.20;99.90;;;;;;5006447;28;20228;-65
2022/11/19 09:52:12;;;;;;;1.00;1.00;;;11.30;99.90;;;;;;5005814;28;20205;-63
2022/11/19 09:54:45;;;;;;;1.60;1.50;;;11.30;99.90;;;;;;5008068;28;20256;-64
2022/11/19 09:57:18;;;;;;;1.27;1.20;;;11.20;99.90;;;;;;5012676;28;20742;-63
2022/11/19 09:59:45;;;;;;;1.17;1.03;;;11.10;99.90;;;;;;5015884;28;20275;-64
2022/11/19 10:02:18;;;;;;;1.00;1.00;;;11.10;99.90;;;;;;5013536;28;20284;-65
2022/11/19 10:04:46;;;;;;;1.00;1.00;;;11.10;99.90;;;;;;5011880;28;20233;-63
2022/11/19 10:07:23;;;;;;;0.97;0.97;;;11.10;99.90;;;;;;5015466;28;20664;-64
2022/11/19 10:10:00;;;;;;;0.90;0.90;;;11.10;99.90;;;;;;5009660;28;20241;-63
2022/11/19 10:12:45;;;;;;;1.00;1.00;;;11.10;99.90;;;;;;5015371;28;20244;-63
2022/11/19 10:15:18;;;;;;;0.70;0.70;;;11.00;99.90;;;;;;5016247;28;20248;-64
2022/11/19 10:17:56;;;;;;;0.80;0.80;;;11.00;99.90;;;;;;5017837;28;20209;-62
2022/11/19 10:20:45;;;;;;;1.70;1.60;;;11.10;99.90;;;;;;5017581;28;20213;-64
2022/11/19 10:23:16;;;;;;;1.00;1.00;;;11.10;99.90;;;;;;5023929;28;20197;-64
2022/11/19 10:25:46;;;;;;;0.70;0.70;;;11.20;99.90;;;;;;5023871;28;20227;-63
2022/11/19 10:28:15;;;;;;;1.10;1.00;;;11.30;99.90;;;;;;5014298;28;20205;-64
2022/11/19 10:30:49;;;;;;;0.80;0.80;;;11.40;99.90;;;;;;5021971;28;20629;-64
2022/11/19 10:33:21;;;;;;;0.80;0.80;;;11.40;99.90;;;;;;5018389;28;20208;-64
2022/11/19 10:35:54;;;;;;;0.70;0.70;;;11.30;99.90;;;;;;5020328;28;20229;-64
2022/11/19 10:38:26;;;;;;;0.80;0.80;;;11.40;99.90;;;;;;5020653;28;20258;-64
2022/11/19 10:40:57;;;;;;;0.70;0.70;;;11.50;99.90;;;;;;5012379;28;20201;-64
2022/11/19 10:43:30;;;;;;;1.00;1.00;;;11.40;99.90;;;;;;5014302;28;20233;-63
2022/11/19 10:45:58;;;;;;;1.40;0.90;;;11.40;99.90;;;;;;5017748;28;20239;-65
2022/11/19 10:48:33;;;;;;;0.77;0.77;;;11.20;99.90;;;;;;5022926;28;20236;-63
2022/11/19 10:51:00;;;;;;;0.60;0.60;;;11.10;99.90;;;;;;5017316;28;20667;-63
2022/11/19 10:53:30;;;;;;;1.00;1.00;;;11.00;99.90;;;;;;5019678;28;20201;-64
2022/11/19 10:56:00;;;;;;;1.80;1.70;;;11.00;99.90;;;;;;5018692;28;20239;-64
2022/11/19 10:58:32;;;;;;;1.40;1.40;;;10.90;99.90;;;;;;5015858;28;20212;-64
2022/11/19 11:01:02;;;;;;;1.17;1.17;;;10.90;99.90;;;;;;5015696;28;20197;-64
2022/11/19 11:03:33;;;;;;;1.00;1.00;;;11.00;99.90;;;;;;5014438;28;20251;-64
2022/11/19 11:06:04;;;;;;;0.70;0.70;;;11.00;99.90;;;;;;5012396;28;20217;-62
2022/11/19 11:08:31;;;;;;;0.93;0.90;;;10.90;99.90;;;;;;5011013;28;20579;-64
2022/11/19 11:10:59;;;;;;;0.73;0.73;;;10.90;99.90;;;;;;5010947;28;20214;-63
2022/11/19 11:16:25;;;;;;;1.00;0.90;;;10.90;99.90;;;;;;5009143;28;20232;-63
2022/11/19 11:18:54;;;;;;;2.30;2.20;;;11.00;99.90;;;;;;5020399;28;20224;-64
2022/11/19 11:21:32;;;;;;;1.00;1.00;;;11.00;99.90;;;;;;5028390;28;20288;-63
2022/11/19 11:24:01;;;;;;;0.80;0.80;;;11.00;99.90;;;;;;5008970;28;20221;-64
2022/11/19 11:26:30;;;;;;;2.00;1.80;;;11.00;99.90;;;;;;5013487;28;20205;-63
2022/11/19 11:29:01;;;;;;;1.23;1.13;;;11.00;99.90;;;;;;5012093;28;20207;-65
2022/11/19 11:31:34;;;;;;;0.80;0.80;;;11.00;99.90;;;;;;5021553;28;20243;-64
2022/11/19 11:34:02;;;;;;;0.70;0.70;;;11.10;99.90;;;;;;5021386;28;20221;-63
2022/11/19 11:36:31;;;;;;;1.27;1.17;;;11.10;99.90;;;;;;5012882;28;20225;-62
2022/11/19 11:39:00;;;;;;;0.80;0.80;;;11.20;99.90;;;;;;5017811;28;20291;-62
2022/11/19 11:41:35;;;;;;;0.87;0.87;;;11.10;99.90;;;;;;5012018;28;20201;-62
2022/11/19 11:44:06;;;;;;;1.20;1.10;;;11.00;99.90;;;;;;5007235;28;20641;-62
2022/11/19 11:46:42;;;;;;;0.90;0.90;;;11.00;99.90;;;;;;5012727;28;20292;-64
2022/11/19 11:49:25;;;;;;;2.20;2.10;;;10.90;99.90;;;;;;5011301;28;20204;-64
2022/11/19 11:52:02;;;;;;;2.40;2.20;;;10.90;99.90;;;;;;5021645;28;20200;-62
2022/11/19 11:54:29;;;;;;;1.70;1.60;;;11.10;99.90;;;;;;5009406;28;20583;-62
2022/11/19 11:57:13;;;;;;;2.63;2.53;;;11.10;99.90;;;;;;5018307;28;20220;-62
2022/11/19 11:59:42;;;;;;;2.37;2.27;;;10.90;99.90;;;;;;5013803;28;20641;-62
2022/11/19 12:02:19;;;;;;;1.87;1.77;;;11.20;99.90;;;;;;5024058;28;20304;-61
2022/11/19 12:04:46;;;;;;;1.10;1.10;;;11.40;99.90;;;;;;5011073;28;20221;-63
2022/11/19 12:07:25;;;;;;;1.10;1.00;;;11.50;99.90;;;;;;5008717;28;20204;-62
2022/11/19 12:10:02;;;;;;;1.13;1.13;;;11.60;99.90;;;;;;5011393;28;20205;-62
2022/11/19 12:12:37;;;;;;;1.30;1.20;;;11.70;99.90;;;;;;5023653;28;20568;-62
2022/11/19 12:15:16;;;;;;;0.73;0.73;;;11.70;99.90;;;;;;5006468;28;20228;-62
2022/11/19 12:17:49;;;;;;;1.57;1.00;;;11.60;99.90;;;;;;5003652;28;20210;-62
2022/11/19 12:20:36;;;;;;;0.83;0.83;;;11.60;99.90;;;;;;5006354;28;20201;-62
2022/11/19 12:23:29;;;;;;;0.80;0.80;;;11.60;99.90;;;;;;5008894;28;20205;-61
2022/11/19 12:26:11;;;;;;;1.10;1.10;;;11.60;99.90;;;;;;5006424;28;20229;-64
2022/11/19 12:29:04;;;;;;;0.90;0.90;;;11.70;99.90;;;;;;5011097;28;20209;-64
2022/11/19 12:31:48;;;;;;;0.83;0.83;;;11.70;99.90;;;;;;5009039;28;20244;-63
2022/11/19 12:34:31;;;;;;;1.20;1.10;;;11.50;99.90;;;;;;5010335;28;20283;-64
2022/11/19 12:37:07;;;;;;;0.70;0.70;;;11.60;99.90;;;;;;5010287;28;20328;-62
2022/11/19 12:39:45;;;;;;;1.83;1.73;;;11.70;99.90;;;;;;5010314;28;20199;-64
2022/11/19 12:42:30;;;;;;;0.70;0.70;;;11.80;99.90;;;;;;5011718;28;20207;-64
2022/11/19 12:45:06;;;;;;;1.00;1.00;;;11.90;99.90;;;;;;5011868;28;20231;-63
2022/11/19 12:47:49;;;;;;;0.70;0.70;;;12.10;99.90;;;;;;5011155;28;20288;-63
2022/11/19 12:50:25;;;;;;;1.10;1.10;;;12.20;99.90;;;;;;5008637;28;20667;-63
2022/11/19 12:53:07;;;;;;;1.23;1.23;;;12.40;99.90;;;;;;5009375;28;20558;-65
2022/11/19 12:55:43;;;;;;;1.30;1.20;;;12.20;99.90;;;;;;5009210;28;20229;-64
2022/11/19 12:58:20;;;;;;;1.10;1.10;;;12.20;99.90;;;;;;5008406;28;20276;-64
2022/11/19 13:00:52;;;;;;;0.70;0.70;;;12.30;99.90;;;;;;5010325;28;20205;-64
2022/11/19 13:03:25;;;;;;;0.70;0.70;;;12.50;99.90;;;;;;5004561;28;20201;-63
2022/11/19 13:05:57;;;;;;;1.07;1.07;;;12.60;99.90;;;;;;5014271;28;20217;-63
2022/11/19 13:08:30;;;;;;;1.00;1.00;;;12.80;99.90;;;;;;5009273;28;20292;-63
2022/11/19 13:11:04;;;;;;;0.80;0.80;;;12.90;99.90;;;;;;5014130;28;20915;-63
2022/11/19 13:13:35;;;;;;;0.80;0.80;;;13.00;99.90;;;;;;5023085;28;20284;-64
2022/11/19 13:16:07;;;;;;;0.90;0.90;;;13.10;99.90;;;;;;5017173;28;20225;-64
2022/11/19 13:18:37;;;;;;;0.80;0.80;;;13.10;99.90;;;;;;5009420;28;20207;-65
2022/11/19 13:21:12;;;;;;;0.90;0.90;;;13.10;99.90;;;;;;5006504;28;20205;-64
2022/11/19 13:23:43;;;;;;;0.80;0.80;;;13.10;99.90;;;;;;5009669;28;20624;-63
2022/11/19 13:26:15;;;;;;;1.30;1.30;;;12.80;99.90;;;;;;5005652;28;20201;-64
2022/11/19 13:28:46;;;;;;;1.00;1.00;;;12.70;99.90;;;;;;5014341;28;20205;-63
2022/11/19 13:31:19;;;;;;;0.67;0.67;;;12.70;99.90;;;;;;5013363;28;20197;-64